Kollan Island, Australia
Current Conditions -  °F | °C
As of 5:00 AM on Tuesday 21 Oct 2014 (Local Time) from YCIN Reporting Station
Clear Clear  
Wind Chill: 72°   Ceiling: Unl
Heat Index: 72°   Visibility: NA
Dew Point: 63°   Wind: 3mph
Humidity: 73%   Direction: 40°NE
Pressure: 29.91"   Gusts: NA
Location:  16.11°S, 123.69°E
Report Text: YCIN 202100Z AUTO 04003KT //// // NCD 22/17 Q1013
Loading
Personal Weather Stations






























Interactive Weather Map
Tropical Storm Tracking
New forecast layout! Learn more

10-Day Weather Forecast

Advertisements
Track Severe Weather on mobile